Time;durP1;ratioP1;P1;durP2;ratioP2;P2;SDS_P1;SDS_P2;PMS_P1;PMS_P2;Temp;Humidity;BMP_temperature;BMP_pressure;BME280_temperature;BME280_humidity;BME280_pressure;Samples;Min_cycle;Max_cycle;Signal;HPM_P1;HPM_P2
2022/08/19 00:01:08;;;;;;;;;;;;;;;27.04;37.50;100225.06;5070502;28;950;-40
2022/08/19 00:03:33;;;;;;;;;;;;;;;27.06;38.30;100235.66;5067514;28;1168;-40
2022/08/19 00:05:59;;;;;;;;;;;;;;;27.52;37.41;100234.31;5071495;28;1048;-39
2022/08/19 00:08:24;;;;;;;;;;;;;;;27.36;37.41;100239.00;5069475;28;1206;-40
2022/08/19 00:10:49;;;;;;;;;;;;;;;27.13;38.66;100240.06;5072732;28;976;-39
2022/08/19 00:13:15;;;;;;;;;;;;;;;27.59;36.83;100251.38;5072685;28;1917;-40
2022/08/19 00:15:44;;;;;;;;;;;;;;;27.47;37.62;100250.28;5075263;28;981;-40
2022/08/19 00:18:09;;;;;;;;;;;;;;;27.77;37.43;100252.78;5073537;28;2288;-40
2022/08/19 00:20:35;;;;;;;;;;;;;;;23.28;49.38;100243.56;5070240;28;1028;-39
2022/08/19 00:23:00;;;;;;;;;;;;;;;25.59;40.78;100253.41;5067660;28;913;-39
2022/08/19 00:25:25;;;;;;;;;;;;;;;26.52;39.94;100254.84;5065846;28;1067;-39
2022/08/19 00:27:51;;;;;;;;;;;;;;;27.27;36.85;100248.28;5071301;28;1458;-40
2022/08/19 00:30:16;;;;;;;;;;;;;;;27.17;37.56;100248.63;5069757;28;1017;-40
2022/08/19 00:32:41;;;;;;;;;;;;;;;27.29;38.19;100242.69;5072376;28;1898;-39
2022/08/19 00:35:07;;;;;;;;;;;;;;;27.47;37.39;100245.72;5071604;28;851;-39
2022/08/19 00:37:34;;;;;;;;;;;;;;;27.26;38.28;100239.34;5072889;28;997;-39
2022/08/19 00:39:59;;;;;;;;;;;;;;;27.75;36.78;100244.88;5074937;28;1020;-40
2022/08/19 00:42:28;;;;;;;;;;;;;;;23.76;43.55;100244.66;5052255;28;1203;-41
2022/08/19 00:44:53;;;;;;;;;;;;;;;25.15;41.69;100245.94;5071755;28;992;-38
2022/08/19 00:47:19;;;;;;;;;;;;;;;26.35;40.25;100249.69;5069730;28;894;-39
2022/08/19 00:49:50;;;;;;;;;;;;;;;27.08;37.11;100253.31;5069161;28;1928;-39
2022/08/19 00:52:17;;;;;;;;;;;;;;;27.08;38.03;100250.63;5075837;28;1960;-38
2022/08/19 00:54:42;;;;;;;;;;;;;;;27.49;37.53;100251.75;5047205;28;974;-39
2022/08/19 00:57:09;;;;;;;;;;;;;;;27.50;36.57;100252.59;5054969;28;1013;-39
2022/08/19 00:59:35;;;;;;;;;;;;;;;27.29;37.82;100250.78;5066221;28;943;-39
2022/08/19 01:02:01;;;;;;;;;;;;;;;27.75;36.11;100260.25;5051200;28;1516;-38
2022/08/19 01:04:26;;;;;;;;;;;;;;;24.30;41.25;100246.66;5054160;28;1029;-38
2022/08/19 01:06:51;;;;;;;;;;;;;;;24.83;43.21;100247.84;5070660;28;1163;-38
2022/08/19 01:09:17;;;;;;;;;;;;;;;26.44;40.27;100250.41;5073434;28;1147;-39
2022/08/19 01:11:43;;;;;;;;;;;;;;;26.97;37.30;100245.72;5072258;28;888;-39
2022/08/19 01:14:08;;;;;;;;;;;;;;;27.07;38.48;100245.41;5075542;28;1965;-40
2022/08/19 01:16:33;;;;;;;;;;;;;;;27.58;36.48;100241.63;5056172;28;1261;-39
2022/08/19 01:18:58;;;;;;;;;;;;;;;27.45;36.77;100239.69;5067875;28;2568;-39
2022/08/19 01:21:24;;;;;;;;;;;;;;;27.52;37.83;100239.72;5073985;28;1032;-39
2022/08/19 01:23:49;;;;;;;;;;;;;;;23.40;48.93;100241.41;5069916;28;1190;-39
2022/08/19 01:26:15;;;;;;;;;;;;;;;25.68;40.28;100245.09;5057998;28;1040;-39
2022/08/19 01:28:41;;;;;;;;;;;;;;;26.46;40.23;100251.03;5073780;28;1139;-39
2022/08/19 01:31:08;;;;;;;;;;;;;;;27.25;37.21;100237.69;5077164;28;1021;-39
2022/08/19 01:33:33;;;;;;;;;;;;;;;27.25;37.81;100239.53;5076027;28;1941;-40
2022/08/19 01:36:06;;;;;;;;;;;;;;;27.29;38.12;100238.13;5073035;28;878;-40
2022/08/19 01:38:34;;;;;;;;;;;;;;;27.35;37.85;100237.34;5067783;28;1195;-40
2022/08/19 01:40:59;;;;;;;;;;;;;;;27.31;38.56;100237.94;5049795;28;996;-40
2022/08/19 01:43:25;;;;;;;;;;;;;;;23.79;48.41;100234.41;5073441;28;1008;-40
2022/08/19 01:45:50;;;;;;;;;;;;;;;26.01;40.11;100238.47;5077107;28;1123;-40
2022/08/19 01:48:16;;;;;;;;;;;;;;;26.56;39.07;100234.53;5073308;28;1824;-40
2022/08/19 01:50:41;;;;;;;;;;;;;;;26.85;39.69;100243.56;5072757;28;1148;-40
2022/08/19 01:53:07;;;;;;;;;;;;;;;27.17;37.80;100236.97;5069136;28;1906;-39
2022/08/19 01:55:33;;;;;;;;;;;;;;;27.13;38.84;100240.06;5055475;28;1276;-40
2022/08/19 01:57:59;;;;;;;;;;;;;;;27.44;37.66;100235.31;5071801;28;1047;-40
2022/08/19 02:00:25;;;;;;;;;;;;;;;27.20;37.67;100199.63;5074046;28;1036;-40
2022/08/19 02:02:50;;;;;;;;;;;;;;;27.24;38.72;100229.78;5075320;28;997;-40
2022/08/19 02:05:17;;;;;;;;;;;;;;;23.12;51.72;100226.47;5074755;28;1048;-40
2022/08/19 02:07:44;;;;;;;;;;;;;;;25.73;41.73;100235.59;5076871;28;989;-40
2022/08/19 02:10:10;;;;;;;;;;;;;;;26.40;41.21;100225.69;5056604;28;1198;-40
2022/08/19 02:12:35;;;;;;;;;;;;;;;27.16;38.75;100224.53;5075779;28;1960;-40
2022/08/19 02:15:02;;;;;;;;;;;;;;;27.16;39.49;100221.81;5075463;28;1017;-40
2022/08/19 02:17:28;;;;;;;;;;;;;;;27.07;39.99;100229.22;5069814;28;1008;-40
2022/08/19 02:19:54;;;;;;;;;;;;;;;27.47;38.21;100225.97;5072201;28;1000;-40
2022/08/19 02:22:19;;;;;;;;;;;;;;;27.29;39.62;100221.94;5067780;28;1020;-40
2022/08/19 02:24:44;;;;;;;;;;;;;;;27.66;38.94;100218.19;5070225;28;1075;-40
2022/08/19 02:27:10;;;;;;;;;;;;;;;27.58;37.96;100219.16;5072187;28;1238;-40
2022/08/19 02:29:35;;;;;;;;;;;;;;;27.19;40.24;100216.88;5075290;28;1115;-40
2022/08/19 02:32:01;;;;;;;;;;;;;;;27.64;37.86;100213.00;5075367;28;1898;-40
2022/08/19 02:34:26;;;;;;;;;;;;;;;26.23;38.01;100208.88;5074723;28;1029;-40
2022/08/19 02:36:51;;;;;;;;;;;;;;;24.31;48.38;100213.38;5077704;28;1104;-39
2022/08/19 02:39:17;;;;;;;;;;;;;;;26.37;41.28;100209.06;5053919;28;958;-40
2022/08/19 02:41:42;;;;;;;;;;;;;;;26.74;40.39;100212.50;5071968;28;961;-39
2022/08/19 02:44:07;;;;;;;;;;;;;;;26.65;41.65;100219.06;5072096;28;1005;-40
2022/08/19 02:46:33;;;;;;;;;;;;;;;27.00;38.59;100221.88;5073607;28;1110;-39
2022/08/19 02:48:59;;;;;;;;;;;;;;;26.87;38.90;100211.81;5076929;28;1017;-40
2022/08/19 02:51:25;;;;;;;;;;;;;;;27.09;38.98;100209.09;5066665;28;965;-40
2022/08/19 02:53:51;;;;;;;;;;;;;;;26.98;37.60;100215.84;5053162;28;1964;-40
2022/08/19 02:56:17;;;;;;;;;;;;;;;26.83;39.24;100213.22;5070121;28;1060;-39
2022/08/19 02:58:42;;;;;;;;;;;;;;;27.10;36.56;100216.19;5067983;28;1013;-39
2022/08/19 03:01:08;;;;;;;;;;;;;;;27.05;37.66;100209.69;5071218;28;1020;-39
2022/08/19 03:03:33;;;;;;;;;;;;;;;27.30;37.98;100214.63;5072296;28;1083;-40
2022/08/19 03:06:05;;;;;;;;;;;;;;;27.36;37.32;100219.28;5075469;28;1107;-39
2022/08/19 03:08:30;;;;;;;;;;;;;;;27.19;38.47;100221.44;5074330;28;1214;-40
2022/08/19 03:10:55;;;;;;;;;;;;;;;27.44;36.99;100227.22;5074918;28;1281;-39
2022/08/19 03:13:20;;;;;;;;;;;;;;;27.41;37.62;100233.00;5076667;28;1902;-40
2022/08/19 03:15:47;;;;;;;;;;;;;;;27.55;38.37;100236.63;5070923;28;965;-40
2022/08/19 03:18:12;;;;;;;;;;;;;;;27.21;39.89;100246.38;5070489;28;937;-44
2022/08/19 03:20:50;;;;;;;;;;;;;;;27.17;40.14;100245.09;5068273;28;1021;-44
2022/08/19 03:23:16;;;;;;;;;;;;;;;27.33;41.76;100246.66;5068558;28;993;-44
2022/08/19 03:25:43;;;;;;;;;;;;;;;27.36;40.77;100241.69;5070580;28;1139;-47
2022/08/19 03:28:09;;;;;;;;;;;;;;;27.25;41.80;100244.94;5073809;28;969;-53
2022/08/19 03:30:34;;;;;;;;;;;;;;;24.12;52.41;100252.28;5072650;28;1151;-42
2022/08/19 03:33:00;;;;;;;;;;;;;;;26.26;44.76;100254.31;5075201;28;1951;-43
2022/08/19 03:35:25;;;;;;;;;;;;;;;26.59;45.19;100258.44;5070561;28;1135;-42
2022/08/19 03:37:50;;;;;;;;;;;;;;;26.67;44.43;100253.94;5076422;28;1047;-43
2022/08/19 03:40:16;;;;;;;;;;;;;;;26.90;43.96;100260.00;5069381;28;973;-43
2022/08/19 03:42:42;;;;;;;;;;;;;;;26.85;44.91;100259.75;5065861;28;965;-42
2022/08/19 03:45:07;;;;;;;;;;;;;;;26.95;45.08;100258.56;5076589;28;965;-44
2022/08/19 03:47:33;;;;;;;;;;;;;;;26.92;45.55;100261.66;5056772;28;1173;-43
2022/08/19 03:49:58;;;;;;;;;;;;;;;26.20;41.40;100273.09;5061692;28;1406;-43
2022/08/19 03:52:23;;;;;;;;;;;;;;;19.93;52.83;100265.66;5063705;28;1947;-42
2022/08/19 03:54:48;;;;;;;;;;;;;;;18.41;56.24;100258.03;5066417;28;1072;-43
2022/08/19 03:57:14;;;;;;;;;;;;;;;18.87;61.24;100268.16;5069222;28;1732;-43
2022/08/19 03:59:39;;;;;;;;;;;;;;;19.39;61.96;100275.06;5059740;28;2910;-43
2022/08/19 04:02:09;;;;;;;;;;;;;;;19.52;62.14;100274.75;5069550;28;2273;-44
2022/08/19 04:04:34;;;;;;;;;;;;;;;18.73;62.11;100266.78;5067830;28;1958;-43
2022/08/19 04:06:59;;;;;;;;;;;;;;;19.06;58.80;100270.03;5069759;28;1977;-41
2022/08/19 04:09:25;;;;;;;;;;;;;;;19.89;60.33;100282.94;5063767;28;1758;-60
2022/08/19 04:11:53;;;;;;;;;;;;;;;20.47;56.11;100280.22;5061549;28;1959;-56
2022/08/19 04:14:19;;;;;;;;;;;;;;;22.62;47.76;100285.41;5066379;28;2177;-58
2022/08/19 04:16:46;;;;;;;;;;;;;;;21.80;49.93;100294.78;5066702;28;969;-57
2022/08/19 04:19:11;;;;;;;;;;;;;;;21.72;53.97;100294.69;5068803;28;997;-59
2022/08/19 04:21:36;;;;;;;;;;;;;;;23.43;44.77;100293.91;5070044;28;1028;-56
2022/08/19 04:24:02;;;;;;;;;;;;;;;21.03;51.05;100291.69;5067650;28;855;-59
2022/08/19 04:26:28;;;;;;;;;;;;;;;22.31;46.42;100287.81;5070575;28;1044;-56
2022/08/19 04:28:54;;;;;;;;;;;;;;;22.62;45.68;100289.97;5063770;28;1206;-57
2022/08/19 04:31:20;;;;;;;;;;;;;;;21.31;52.56;100289.88;5071144;28;1037;-55
2022/08/19 04:33:45;;;;;;;;;;;;;;;23.20;45.36;100290.03;5068344;28;1915;-56
2022/08/19 04:36:19;;;;;;;;;;;;;;;21.40;50.26;100291.63;5072634;28;1075;-54
2022/08/19 04:38:45;;;;;;;;;;;;;;;21.67;52.87;100297.00;5070823;28;1203;-56
2022/08/19 04:43:54;;;;;;;;;;;;;;;20.71;53.17;100297.47;5068296;28;1936;-54
2022/08/19 04:46:19;;;;;;;;;;;;;;;21.78;52.17;100302.13;5062385;28;1344;-58
2022/08/19 04:48:45;;;;;;;;;;;;;;;23.47;45.34;100304.13;5061570;28;945;-56
2022/08/19 04:51:12;;;;;;;;;;;;;;;20.67;53.32;100308.47;5067607;28;1000;-55
2022/08/19 04:53:37;;;;;;;;;;;;;;;22.02;50.69;100306.78;5071697;28;1898;-57
2022/08/19 04:56:10;;;;;;;;;;;;;;;22.91;46.38;100302.06;5074829;28;1036;-56
2022/08/19 04:58:35;;;;;;;;;;;;;;;20.54;53.66;100305.31;5073547;28;1005;-53
2022/08/19 05:01:00;;;;;;;;;;;;;;;22.27;49.72;100304.19;5075953;28;858;-53
2022/08/19 05:03:26;;;;;;;;;;;;;;;22.37;48.41;100305.94;5076052;28;1170;-54
2022/08/19 05:05:51;;;;;;;;;;;;;;;20.53;54.09;100307.19;5078435;28;1450;-52
2022/08/19 05:08:20;;;;;;;;;;;;;;;22.20;50.78;100303.19;5078677;28;1207;-53
2022/08/19 05:10:49;;;;;;;;;;;;;;;22.33;48.91;100307.25;5063261;28;1479;-52
2022/08/19 05:13:14;;;;;;;;;;;;;;;20.49;54.42;100311.13;5045290;28;2022;-55
2022/08/19 05:15:40;;;;;;;;;;;;;;;22.16;50.82;100317.03;5048672;28;1418;-54
2022/08/19 05:23:33;;;;;;;;;;;;;;;21.88;47.70;100300.19;5062246;28;1116;-51
2022/08/19 05:25:59;;;;;;;;;;;;;;;22.58;44.99;100300.13;5073116;28;1213;-54
2022/08/19 05:28:24;;;;;;;;;;;;;;;21.46;50.75;100299.03;5067187;28;2686;-55
2022/08/19 05:30:50;;;;;;;;;;;;;;;23.48;43.08;100291.53;5078151;28;1122;-57
2022/08/19 05:33:16;;;;;;;;;;;;;;;21.26;48.50;100283.16;5078972;28;1897;-58
2022/08/19 05:35:41;;;;;;;;;;;;;;;20.88;52.97;100296.69;5074674;28;1012;-55
2022/08/19 05:38:08;;;;;;;;;;;;;;;23.11;46.33;100285.66;5072207;28;1060;-54
2022/08/19 05:40:36;;;;;;;;;;;;;;;21.49;50.65;100289.84;5071054;28;969;-53
2022/08/19 05:43:02;;;;;;;;;;;;;;;20.45;54.72;100290.19;5074792;28;1024;-50
2022/08/19 05:45:28;;;;;;;;;;;;;;;21.20;56.57;100288.28;5072362;28;933;-51
2022/08/19 05:47:54;;;;;;;;;;;;;;;23.55;48.00;100289.88;5069166;28;973;-46
2022/08/19 05:50:19;;;;;;;;;;;;;;;21.06;53.00;100284.31;5072347;28;1044;-49
2022/08/19 05:52:44;;;;;;;;;;;;;;;20.39;55.41;100278.25;5063263;28;1959;-53
2022/08/19 05:55:10;;;;;;;;;;;;;;;22.85;50.29;100279.44;5068005;28;1017;-59
2022/08/19 05:57:35;;;;;;;;;;;;;;;22.80;52.41;100276.41;5071554;28;1056;-49
2022/08/19 06:00:01;;;;;;;;;;;;;;;24.16;47.65;100275.09;5070960;28;1147;-47
2022/08/19 06:02:27;;;;;;;;;;;;;;;24.73;45.35;100283.03;5061314;28;1151;-46
2022/08/19 06:04:52;;;;;;;;;;;;;;;24.78;47.75;100282.50;5067857;28;1040;-44
2022/08/19 06:07:19;;;;;;;;;;;;;;;24.94;45.29;100290.47;5070429;28;1083;-49
2022/08/19 06:09:44;;;;;;;;;;;;;;;24.12;50.22;100294.41;5075035;28;1005;-42
2022/08/19 06:12:10;;;;;;;;;;;;;;;25.35;45.47;100284.94;5071319;28;1898;-42
2022/08/19 06:14:35;;;;;;;;;;;;;;;24.65;45.37;100281.25;5071293;28;1057;-46
2022/08/19 06:17:01;;;;;;;;;;;;;;;24.69;45.85;100282.56;5075469;28;1218;-44
2022/08/19 06:19:28;;;;;;;;;;;;;;;25.08;44.24;100279.97;5077657;28;1151;-41
2022/08/19 06:21:53;;;;;;;;;;;;;;;24.67;47.35;100278.38;5067631;28;1198;-47
2022/08/19 06:24:20;;;;;;;;;;;;;;;25.50;44.59;100271.50;5070876;28;1163;-44
2022/08/19 06:26:46;;;;;;;;;;;;;;;24.51;49.43;100281.97;5062147;28;969;-46
2022/08/19 06:29:12;;;;;;;;;;;;;;;25.58;44.83;100274.13;5074384;28;1064;-45
2022/08/19 06:31:40;;;;;;;;;;;;;;;25.02;44.89;100269.91;5063108;28;953;-44
2022/08/19 06:34:05;;;;;;;;;;;;;;;24.85;46.73;100270.03;5062857;28;1902;-46
2022/08/19 06:36:33;;;;;;;;;;;;;;;25.85;43.74;100276.41;5062236;28;1103;-45
2022/08/19 06:39:09;;;;;;;;;;;;;;;24.74;45.11;100273.13;5039442;28;1139;-49
2022/08/19 06:41:35;;;;;;;;;;;;;;;25.29;44.86;100273.06;5058127;28;1057;-44
2022/08/19 06:44:01;;;;;;;;;;;;;;;25.26;44.14;100271.56;5059833;28;1143;-42
2022/08/19 06:46:27;;;;;;;;;;;;;;;24.39;50.98;100278.88;5053935;28;1117;-46
2022/08/19 06:48:53;;;;;;;;;;;;;;;25.54;43.84;100278.22;5060586;28;1302;-46
2022/08/19 06:51:18;;;;;;;;;;;;;;;24.99;44.88;100273.78;5062049;28;1512;-45
2022/08/19 06:53:47;;;;;;;;;;;;;;;24.75;47.39;100275.63;5060263;28;1955;-43
2022/08/19 06:56:13;;;;;;;;;;;;;;;25.88;43.91;100276.88;5061804;28;1247;-43
2022/08/19 06:58:38;;;;;;;;;;;;;;;24.58;45.11;100280.28;5061893;28;1060;-48
2022/08/19 07:01:04;;;;;;;;;;;;;;;24.83;46.37;100278.28;5061099;28;1013;-48
2022/08/19 07:03:30;;;;;;;;;;;;;;;25.85;43.38;100285.31;5069606;28;1080;-47
2022/08/19 07:05:56;;;;;;;;;;;;;;;24.61;45.40;100282.59;5074830;28;981;-47
2022/08/19 07:08:21;;;;;;;;;;;;;;;25.29;45.36;100275.75;5070184;28;1313;-45
2022/08/19 07:10:47;;;;;;;;;;;;;;;25.84;44.12;100280.13;5069668;28;1100;-43
2022/08/19 07:13:13;;;;;;;;;;;;;;;24.68;45.25;100266.59;5059318;28;1913;-46
2022/08/19 07:15:38;;;;;;;;;;;;;;;24.75;46.94;100272.94;5059375;28;1277;-36
2022/08/19 07:18:04;;;;;;;;;;;;;;;26.13;43.64;100265.78;5069643;28;1039;-37
2022/08/19 07:20:30;;;;;;;;;;;;;;;24.73;44.98;100258.84;5074403;28;1143;-38
2022/08/19 07:22:55;;;;;;;;;;;;;;;24.43;49.95;100256.84;5044368;28;1127;-39
2022/08/19 07:25:20;;;;;;;;;;;;;;;26.00;43.81;100266.44;5069055;28;1008;-36
2022/08/19 07:27:45;;;;;;;;;;;;;;;25.04;44.84;100266.03;5074809;28;1155;-37
2022/08/19 07:30:11;;;;;;;;;;;;;;;24.27;46.11;100257.78;5058514;28;1343;-46
2022/08/19 07:32:37;;;;;;;;;;;;;;;24.94;46.19;100260.88;5076917;28;1951;-41
2022/08/19 07:35:03;;;;;;;;;;;;;;;25.81;43.67;100262.44;5064789;28;952;-38
2022/08/19 07:37:28;;;;;;;;;;;;;;;24.68;46.81;100259.38;5060342;28;1305;-38
2022/08/19 07:39:53;;;;;;;;;;;;;;;25.79;42.32;100273.41;5062244;28;1099;-37
2022/08/19 07:42:20;;;;;;;;;;;;;;;25.49;42.94;100284.13;5063637;28;1055;-37
2022/08/19 07:44:46;;;;;;;;;;;;;;;24.43;45.63;100272.97;5070920;28;1477;-37
2022/08/19 07:47:12;;;;;;;;;;;;;;;25.26;46.14;100279.63;5069913;28;1006;-37
2022/08/19 07:49:37;;;;;;;;;;;;;;;25.98;44.63;100268.50;5063116;28;1059;-37
2022/08/19 07:52:05;;;;;;;;;;;;;;;24.85;46.67;100267.31;5063924;28;957;-37
2022/08/19 07:54:31;;;;;;;;;;;;;;;24.31;47.83;100258.22;5070006;28;1959;-38
2022/08/19 07:56:56;;;;;;;;;;;;;;;24.17;53.19;100266.03;5069750;28;1076;-40
2022/08/19 07:59:21;;;;;;;;;;;;;;;26.05;45.97;100265.88;5072922;28;1044;-39
2022/08/19 08:01:47;;;;;;;;;;;;;;;25.17;46.40;100251.94;5067796;28;1186;-39
2022/08/19 08:09:41;;;;;;;;;;;;;;;26.26;45.21;100251.63;5075393;28;1143;-38
2022/08/19 08:12:06;;;;;;;;;;;;;;;24.96;46.46;100252.63;5061496;28;1171;-38
2022/08/19 08:14:33;;;;;;;;;;;;;;;24.39;52.01;100252.00;5069918;28;1914;-38
2022/08/19 08:16:58;;;;;;;;;;;;;;;25.89;45.38;100261.53;5075779;28;1049;-39
2022/08/19 08:19:24;;;;;;;;;;;;;;;25.59;45.20;100274.97;5076244;28;1219;-38
2022/08/19 08:21:49;;;;;;;;;;;;;;;24.52;46.90;100256.78;5070245;28;1024;-38
2022/08/19 08:24:15;;;;;;;;;;;;;;;25.06;46.78;100239.78;5070349;28;968;-38
2022/08/19 08:26:40;;;;;;;;;;;;;;;26.01;44.21;100243.00;5048319;28;993;-38
2022/08/19 08:29:07;;;;;;;;;;;;;;;24.79;46.19;100258.09;5070842;28;1015;-37
2022/08/19 08:31:33;;;;;;;;;;;;;;;24.25;47.22;100259.78;5069697;28;1424;-38
2022/08/19 08:33:59;;;;;;;;;;;;;;;24.95;47.35;100242.91;5071415;28;1953;-38
2022/08/19 08:36:25;;;;;;;;;;;;;;;26.06;44.82;100251.38;5073303;28;981;-37
2022/08/19 08:38:50;;;;;;;;;;;;;;;25.12;45.81;100242.75;5067328;28;1012;-36
2022/08/19 08:41:22;;;;;;;;;;;;;;;24.48;46.74;100244.69;5074669;28;985;-37
2022/08/19 08:43:48;;;;;;;;;;;;;;;25.53;44.61;100231.59;5075061;28;1139;-38
2022/08/19 08:46:19;;;;;;;;;;;;;;;25.76;43.32;100230.69;5071704;28;926;-37
2022/08/19 08:48:51;;;;;;;;;;;;;;;23.38;44.55;100231.78;5050801;28;977;-37
2022/08/19 08:51:21;;;;;;;;;;;;;;;20.28;46.18;100224.06;5066023;28;914;-37
2022/08/19 08:53:46;;;;;;;;;;;;;;;19.18;46.31;100217.44;5053034;28;1964;-36
2022/08/19 08:56:12;;;;;;;;;;;;;;;18.66;50.42;100215.00;5052321;28;1040;-43
2022/08/19 08:58:53;;;;;;;;;;;;;;;19.18;54.00;100219.25;5071683;28;1164;-44
2022/08/19 09:01:19;;;;;;;;;;;;;;;19.52;54.87;100225.91;5056861;28;1068;-43
2022/08/19 09:03:45;;;;;;;;;;;;;;;19.65;55.01;100209.59;5060558;28;1024;-43
2022/08/19 09:06:33;;;;;;;;;;;;;;;19.61;55.28;100221.53;5074612;28;1091;-43
2022/08/19 09:09:06;;;;;;;;;;;;;;;19.61;55.50;100227.72;5055991;28;1159;-43
2022/08/19 09:11:46;;;;;;;;;;;;;;;19.57;56.43;100232.50;5064033;28;1330;-43
2022/08/19 09:14:15;;;;;;;;;;;;;;;19.65;56.67;100221.06;5065240;28;1910;-44
2022/08/19 09:16:40;;;;;;;;;;;;;;;19.59;56.60;100227.00;5064083;28;1029;-43
2022/08/19 09:19:06;;;;;;;;;;;;;;;19.55;56.62;100230.97;5067601;28;1087;-43
2022/08/19 09:21:32;;;;;;;;;;;;;;;19.47;56.54;100226.31;5071638;28;1036;-43
2022/08/19 09:23:58;;;;;;;;;;;;;;;19.27;57.16;100230.88;5069411;28;1012;-43
2022/08/19 09:26:23;;;;;;;;;;;;;;;19.32;57.76;100228.59;5060967;28;1239;-44
2022/08/19 09:28:49;;;;;;;;;;;;;;;19.40;57.41;100231.41;5068580;28;981;-36
2022/08/19 09:31:15;;;;;;;;;;;;;;;19.43;57.35;100225.81;5072569;28;1036;-38
2022/08/19 09:33:43;;;;;;;;;;;;;;;19.40;57.08;100238.56;5070537;28;1957;-37
2022/08/19 09:36:09;;;;;;;;;;;;;;;19.38;57.23;100221.88;5073648;28;989;-36
2022/08/19 09:38:35;;;;;;;;;;;;;;;19.42;57.49;100242.78;5073314;28;1119;-38
2022/08/19 09:41:07;;;;;;;;;;;;;;;19.49;57.43;100239.53;5078520;28;1049;-37
2022/08/19 09:43:33;;;;;;;;;;;;;;;19.46;58.15;100222.00;5078830;28;1040;-38
2022/08/19 09:46:00;;;;;;;;;;;;;;;19.45;58.17;100234.47;5077762;28;1158;-35
2022/08/19 09:48:25;;;;;;;;;;;;;;;19.49;58.28;100236.84;5068830;28;1498;-38
2022/08/19 09:50:51;;;;;;;;;;;;;;;18.56;57.82;100090.66;5072826;28;1021;-38
2022/08/19 09:53:16;;;;;;;;;;;;;;;19.41;57.39;100227.75;5063306;28;1956;-36
2022/08/19 09:55:44;;;;;;;;;;;;;;;19.37;57.38;100229.03;5071268;28;993;-36
2022/08/19 09:58:10;;;;;;;;;;;;;;;19.44;57.04;100221.28;5048912;28;1420;-34
2022/08/19 10:00:37;;;;;;;;;;;;;;;19.38;56.94;100228.06;5073992;28;977;-38
2022/08/19 10:03:02;;;;;;;;;;;;;;;19.38;56.66;100232.53;5064840;28;1239;-35
2022/08/19 10:08:11;;;;;;;;;;;;;;;19.35;56.79;100235.50;5071779;28;997;-36
2022/08/19 10:10:37;;;;;;;;;;;;;;;19.36;56.86;100232.69;5072243;28;1230;-36
2022/08/19 10:13:02;;;;;;;;;;;;;;;19.37;56.70;100233.53;5060180;28;1902;-34
2022/08/19 10:15:27;;;;;;;;;;;;;;;19.41;56.28;100242.91;5065734;28;904;-35
2022/08/19 10:17:52;;;;;;;;;;;;;;;19.37;56.36;100223.69;5067793;28;1194;-35
2022/08/19 10:20:18;;;;;;;;;;;;;;;19.38;55.98;100229.88;5063605;28;993;-34
2022/08/19 10:22:43;;;;;;;;;;;;;;;19.24;56.15;100239.16;5058178;28;1157;-37
2022/08/19 10:25:09;;;;;;;;;;;;;;;19.15;56.83;100235.53;5065381;28;989;-37
2022/08/19 10:27:34;;;;;;;;;;;;;;;19.24;57.13;100233.81;5070016;28;1040;-37
2022/08/19 10:29:59;;;;;;;;;;;;;;;19.22;57.49;100231.28;5074639;28;1041;-37
2022/08/19 10:32:25;;;;;;;;;;;;;;;19.30;57.60;100227.94;5072815;28;1902;-37
2022/08/19 10:34:52;;;;;;;;;;;;;;;19.31;57.81;100246.44;5065652;28;1044;-36
2022/08/19 10:37:17;;;;;;;;;;;;;;;19.35;58.30;100233.69;5068090;28;997;-35
2022/08/19 10:39:43;;;;;;;;;;;;;;;19.45;58.16;100231.00;5067738;28;826;-36
2022/08/19 10:42:10;;;;;;;;;;;;;;;19.35;58.32;100227.50;5049115;28;1374;-36
2022/08/19 10:44:35;;;;;;;;;;;;;;;19.41;58.32;100230.44;5077133;28;1120;-36
2022/08/19 10:47:01;;;;;;;;;;;;;;;19.44;57.68;100231.94;5071478;28;1122;-38
2022/08/19 10:49:26;;;;;;;;;;;;;;;19.42;57.15;100237.44;5051015;28;1167;-38
2022/08/19 10:57:19;;;;;;;;;;;;;;;19.42;57.91;100236.59;5068845;28;1096;-44
2022/08/19 10:59:45;;;;;;;;;;;;;;;19.36;58.58;100238.03;5071833;28;1167;-41
2022/08/19 11:02:11;;;;;;;;;;;;;;;19.47;58.85;100236.19;5074660;28;1013;-40
2022/08/19 11:04:36;;;;;;;;;;;;;;;19.45;57.75;100245.16;5064677;28;1146;-43
2022/08/19 11:07:03;;;;;;;;;;;;;;;19.32;57.60;100257.94;5061310;28;1037;-41
2022/08/19 11:09:28;;;;;;;;;;;;;;;19.32;57.81;100255.28;5054818;28;1065;-43
2022/08/19 11:11:53;;;;;;;;;;;;;;;19.18;56.27;100228.09;5058273;28;1240;-43
2022/08/19 11:14:20;;;;;;;;;;;;;;;18.85;55.64;100236.34;5072678;28;1913;-42
2022/08/19 11:16:45;;;;;;;;;;;;;;;18.65;55.51;100234.66;5074748;28;1000;-42
2022/08/19 11:19:11;;;;;;;;;;;;;;;18.47;55.69;100230.84;5068898;28;962;-42
2022/08/19 11:21:39;;;;;;;;;;;;;;;18.32;55.82;100227.72;5071361;28;969;-42
2022/08/19 11:24:08;;;;;;;;;;;;;;;18.26;55.29;100222.09;5074613;28;1020;-41
2022/08/19 11:26:34;;;;;;;;;;;;;;;18.13;55.29;100223.19;5068525;28;1028;-42
2022/08/19 11:29:00;;;;;;;;;;;;;;;18.08;55.64;100218.22;5073340;28;1123;-42
2022/08/19 11:31:26;;;;;;;;;;;;;;;18.05;56.15;100223.81;5060732;28;1175;-41
2022/08/19 11:33:53;;;;;;;;;;;;;;;18.06;56.50;100216.69;5062873;28;1953;-40
2022/08/19 11:36:20;;;;;;;;;;;;;;;18.02;55.62;100218.78;5062838;28;1227;-40
2022/08/19 11:38:48;;;;;;;;;;;;;;;17.96;56.24;100224.63;5076248;28;1020;-42
2022/08/19 11:41:13;;;;;;;;;;;;;;;17.98;56.07;100242.16;5074065;28;1044;-40
2022/08/19 11:43:39;;;;;;;;;;;;;;;17.97;56.08;100243.13;5072698;28;1121;-41
2022/08/19 11:46:06;;;;;;;;;;;;;;;17.98;57.21;100228.00;5072887;28;1159;-39
2022/08/19 11:48:31;;;;;;;;;;;;;;;19.39;57.49;100218.22;5067036;28;969;-42
2022/08/19 11:50:57;;;;;;;;;;;;;;;21.77;68.41;100231.63;5068364;28;973;-41
2022/08/19 11:53:22;;;;;;;;;;;;;;;21.72;63.29;100231.25;5067141;28;1898;-43
2022/08/19 11:55:47;;;;;;;;;;;;;;;21.38;60.69;100218.69;5059213;28;1325;-44
2022/08/19 11:58:13;;;;;;;;;;;;;;;21.61;62.28;100223.50;5066741;28;1187;-41
2022/08/19 12:00:39;;;;;;;;;;;;;;;21.53;59.04;100227.00;5063141;28;1167;-42
2022/08/19 12:03:04;;;;;;;;;;;;;;;21.47;57.43;100227.63;5059408;28;1175;-43
2022/08/19 12:05:29;;;;;;;;;;;;;;;21.30;56.82;100227.53;5059206;28;1270;-45
2022/08/19 12:07:55;;;;;;;;;;;;;;;21.30;56.24;100235.53;5058366;28;1020;-43
2022/08/19 12:10:21;;;;;;;;;;;;;;;21.33;55.72;100237.91;5059234;28;1155;-43
2022/08/19 12:12:46;;;;;;;;;;;;;;;21.27;55.31;100235.88;5058652;28;1951;-41
2022/08/19 12:15:12;;;;;;;;;;;;;;;21.00;55.92;100224.28;5064319;28;1206;-43
2022/08/19 12:17:37;;;;;;;;;;;;;;;20.95;55.86;100229.25;5053796;28;1321;-42
2022/08/19 12:20:03;;;;;;;;;;;;;;;20.93;56.13;100216.03;5057016;28;1029;-38
2022/08/19 12:22:29;;;;;;;;;;;;;;;21.13;55.75;100219.38;5068123;28;1188;-43
2022/08/19 12:24:54;;;;;;;;;;;;;;;21.13;55.53;100231.91;5061797;28;882;-39
2022/08/19 12:27:20;;;;;;;;;;;;;;;21.09;54.92;100233.19;5062322;28;950;-40
2022/08/19 12:29:45;;;;;;;;;;;;;;;20.98;55.08;100242.31;5066938;28;1243;-39
2022/08/19 12:32:11;;;;;;;;;;;;;;;20.94;55.13;100241.75;5059987;28;1138;-38
2022/08/19 12:34:36;;;;;;;;;;;;;;;20.93;55.18;100245.44;5069025;28;1906;-40
2022/08/19 12:37:02;;;;;;;;;;;;;;;20.94;55.24;100231.06;5061086;28;1059;-41
2022/08/19 12:39:28;;;;;;;;;;;;;;;22.83;52.23;100225.13;5060519;28;1358;-38
2022/08/19 12:41:53;;;;;;;;;;;;;;;23.20;49.30;100236.38;5057688;28;1184;-41
2022/08/19 12:44:18;;;;;;;;;;;;;;;21.74;51.73;100237.31;5058881;28;1203;-41
2022/08/19 12:46:44;;;;;;;;;;;;;;;21.34;53.56;100236.06;5059357;28;1294;-41
2022/08/19 12:49:09;;;;;;;;;;;;;;;21.09;54.41;100231.38;5059776;28;1228;-41
2022/08/19 12:51:35;;;;;;;;;;;;;;;21.13;54.89;100234.56;5057186;28;1215;-41
2022/08/19 12:54:01;;;;;;;;;;;;;;;20.95;55.81;100238.13;5058543;28;1981;-41
2022/08/19 12:56:27;;;;;;;;;;;;;;;20.99;56.12;100238.63;5057346;28;1144;-41
2022/08/19 12:58:52;;;;;;;;;;;;;;;22.72;53.75;100230.81;5058634;28;1080;-40
2022/08/19 13:01:17;;;;;;;;;;;;;;;23.21;51.19;100234.50;5041606;28;1080;-40
2022/08/19 13:03:44;;;;;;;;;;;;;;;21.86;52.37;100237.91;5061482;28;1247;-42